Hamburg Express — DFKM2 — position and weather

sailwx.info

Track history (hours):
 
Tides and Currents Weather Stations Pressure Air Temp Water Temp Dewpoint Dewpoint Depression Visibility Wind Speed Wind Dir Waves Ship Positions

Hamburg Express

Last reported at 2015-Feb-01 23:33 UTC. Time now 2015-Feb-02 00:17 UTC.
Position N 30°36' E 122°05'.

Length 366 m; draft 12.6 m.

Type: Cargo ship. MMSI: 218774000.

Date/timePositionNaut miles runAvg speedWind from/ knotsBaromVisibWave heightAir tempDewpointWater temp
2015-Feb-01 23:33N 30°36' E 122°05'9 9.5
2015-Feb-01 22:33N 30°34' E 122°15'1414.0
2015-Feb-01 21:33N 30°31' E 122°31'1817.8
2015-Feb-01 20:33N 30°24' E 122°51'2613.1
2015-Feb-01 18:33N 29°58' E 122°53'1817.4
2015-Feb-01 17:31N 29°44' E 122°41'1515.6
2015-Feb-01 16:33N 29°43' E 122°24'1514.7
2015-Feb-01 15:33N 29°52' E 122°11'1313.5
2015-Feb-01 14:33N 29°58' E 121°57'6 6.0
2015-Feb-01 13:33N 29°57' E 121°50'0 0.0
2015-Feb-01 12:33N 29°57' E 121°50'0 0.0
2015-Feb-01 11:33N 29°57' E 121°50'0 0.0
2015-Feb-01 10:21N 29°57' E 121°50'0 0.0
2015-Feb-01 09:27N 29°57' E 121°50'0 0.0
2015-Feb-01 08:21N 29°57' E 121°50'0 0.0
2015-Feb-01 07:21N 29°57' E 121°50'0 0.0
2015-Feb-01 06:21N 29°57' E 121°50'0 0.0
2015-Feb-01 05:21N 29°57' E 121°50'0 0.0
2015-Feb-01 04:33N 29°57' E 121°50'0 0.0
2015-Feb-01 03:33N 29°57' E 121°50'0 0.0
2015-Feb-01 02:27N 29°57' E 121°50'0 0.0
2015-Feb-01 01:09N 29°57' E 121°50'0 0.0
2015-Feb-01 00:23N 29°57' E 121°50'0 0.0
2015-Jan-31 23:23N 29°57' E 121°50'0 0.0
2015-Jan-31 21:29N 29°57' E 121°50'0 0.0
2015-Jan-31 20:17N 29°57' E 121°50'0 0.0
2015-Jan-31 18:11N 29°57' E 121°50'0 0.0
2015-Jan-31 17:23N 29°57' E 121°50'0 0.0
2015-Jan-31 16:23N 29°57' E 121°50'0 0.0
2015-Jan-31 15:29N 29°57' E 121°50'0 0.0
2015-Jan-31 14:23N 29°57' E 121°50'0 0.0
2015-Jan-31 13:29N 29°57' E 121°50'0 0.0
2015-Jan-31 12:29N 29°57' E 121°50'0 0.0
2015-Jan-31 11:11N 29°57' E 121°50'0 0.0
2015-Jan-31 10:17N 29°57' E 121°50'0 0.0
2015-Jan-31 09:29N 29°57' E 121°50'0 0.0
2015-Jan-31 08:29N 29°57' E 121°50'0 0.0
2015-Jan-31 07:28N 29°57' E 121°50'0 0.0
2015-Jan-31 06:28N 29°57' E 121°50'0 0.0
2015-Jan-31 05:29N 29°57' E 121°50'0 0.0
2015-Jan-31 04:29N 29°57' E 121°50'1 1.0
2015-Jan-31 03:33N 29°57' E 121°51'8 7.7
2015-Jan-31 02:33N 29°57' E 121°60'1111.2
2015-Jan-31 01:33N 29°52' E 122°12'1110.5
2015-Jan-31 00:33N 29°45' E 122°20'7 7.1
2015-Jan-30 23:33N 29°43' E 122°28'7 6.7
2015-Jan-30 22:33N 29°36' E 122°26'1 0.5
2015-Jan-30 20:28N 29°36' E 122°25'0 0.0
2015-Jan-30 19:29N 29°36' E 122°25'0 0.1
2015-Jan-30 18:28N 29°36' E 122°25'1 2.5
2015-Jan-30 18:00N 29°36' E 122°24'1 1.5 340 / 221032.2 5.4 4.6-2.1 9.4
2015-Jan-30 17:10N 29°36' E 122°25'0 0.0
2015-Jan-30 16:28N 29°36' E 122°25'0 0.0
2015-Jan-30 15:28N 29°36' E 122°25'0 0.0
2015-Jan-30 12:10N 29°36' E 122°25'0 0.0
2015-Jan-30 10:22N 29°36' E 122°25'0 0.1
2015-Jan-30 09:28N 29°36' E 122°25'0 0.0
2015-Jan-30 07:16N 29°36' E 122°25'0 0.0
2015-Jan-30 06:22N 29°36' E 122°25'1 3.0
2015-Jan-30 06:00N 29°36' E 122°24'1 0.7 340 / 221028.5 5.4 1.5 6.3-1.4 9.5
2015-Jan-30 04:10N 29°36' E 122°25'0 0.0
2015-Jan-30 03:22N 29°36' E 122°25'0 0.0
2015-Jan-30 02:10N 29°36' E 122°25'0 0.1
2015-Jan-29 23:32N 29°36' E 122°25'7 7.5
2015-Jan-29 22:33N 29°29' E 122°29'1413.7
2015-Jan-29 21:30N 29°15' E 122°30'5114.6
2015-Jan-29 18:00N 28°24' E 122°24'16513.8 350 / 301023.9 5.4 7.8 5.814.8
2015-Jan-29 06:00N 26°06' E 120°42'12614.9 020 / 301018.9 5.4 3.014.310.315.8
2015-Jan-28 21:32N 24°28' E 119°13'1714.6
2015-Jan-28 20:21N 24°18' E 118°59'2715.1
2015-Jan-28 18:33N 24°00' E 118°36'1222.2
2015-Jan-28 18:00N 23°54' E 118°24'3 7.1 030 / 381020.410.8 14.210.614.7
2015-Jan-28 17:33N 23°51' E 118°22'1515.1
2015-Jan-28 16:33N 23°42' E 118°09'8813.8
2015-Jan-28 10:13N 22°52' E 116°51'6715.9
2015-Jan-28 06:00N 22°30' E 115°42'6713.8 060 / 321017.5 5.4 2.516.610.716.4
2015-Jan-28 01:10N 22°24' E 114°30'1412.9
2015-Jan-28 00:04N 22°34' E 114°19'13 0.8
2015-Jan-27 08:18N 22°25' E 114°29'1418.8
2015-Jan-27 07:33N 22°11' E 114°29'2118.6
2015-Jan-27 06:26N 21°50' E 114°26'23819.1
2015-Jan-26 18:00N 18°06' E 113°00'22718.9 080 / 111015.810.8 21.519.222.8
2015-Jan-26 06:00N 14°36' E 111°30'16713.9 030 / 141014.810.8 25.519.424.5
2015-Jan-25 18:00N 12°00' E 110°30'83 6.9 050 / 151015.110.8 23.319.225.3
2015-Jan-25 06:00N 10°42' E 110°00'86 7.1 020 / 181015.010.8 30.815.225.0
2015-Jan-24 18:00N 09°24' E 109°24'17814.8 050 / 221014.510.8 23.618.724.1
2015-Jan-24 06:00N 06°54' E 107°48'22919.0 070 / 171013.3 5.4 26.318.424.5
2015-Jan-23 18:00N 04°12' E 105°06'17813.8 060 / 171013.410.8 24.220.125.3
2015-Jan-23 05:08N 01°19' E 104°22'813.3
2015-Jan-23 04:32N 01°16' E 104°15'1414.1
2015-Jan-23 03:31N 01°14' E 104°01'9 9.3
2015-Jan-23 02:32N 01°12' E 103°52'4 3.8
2015-Jan-23 01:33N 01°16' E 103°50'  
Track history (hours):
 
Tides and Currents Weather Stations Pressure Air Temp Water Temp Dewpoint Dewpoint Depression Visibility Wind Speed Wind Dir Waves Ship Positions

Hamburg Express

Last reported at 2015-Feb-01 23:33 UTC. Time now 2015-Feb-02 00:17 UTC.
Position N 30°36' E 122°05'.

Length 366 m; draft 12.6 m.

Type: Cargo ship. MMSI: 218774000.

Date/timePositionNaut miles runAvg speedWind from/ knotsBaromVisibWave heightAir tempDewpointWater temp
2015-Feb-01 23:33N 30°36' E 122°05'9 9.5
2015-Feb-01 22:33N 30°34' E 122°15'1414.0
2015-Feb-01 21:33N 30°31' E 122°31'1817.8
2015-Feb-01 20:33N 30°24' E 122°51'2613.1
2015-Feb-01 18:33N 29°58' E 122°53'1817.4
2015-Feb-01 17:31N 29°44' E 122°41'1515.6
2015-Feb-01 16:33N 29°43' E 122°24'1514.7
2015-Feb-01 15:33N 29°52' E 122°11'1313.5
2015-Feb-01 14:33N 29°58' E 121°57'6 6.0
2015-Feb-01 13:33N 29°57' E 121°50'0 0.0
2015-Feb-01 12:33N 29°57' E 121°50'0 0.0
2015-Feb-01 11:33N 29°57' E 121°50'0 0.0
2015-Feb-01 10:21N 29°57' E 121°50'0 0.0
2015-Feb-01 09:27N 29°57' E 121°50'0 0.0
2015-Feb-01 08:21N 29°57' E 121°50'0 0.0
2015-Feb-01 07:21N 29°57' E 121°50'0 0.0
2015-Feb-01 06:21N 29°57' E 121°50'0 0.0
2015-Feb-01 05:21N 29°57' E 121°50'0 0.0
2015-Feb-01 04:33N 29°57' E 121°50'0 0.0
2015-Feb-01 03:33N 29°57' E 121°50'0 0.0
2015-Feb-01 02:27N 29°57' E 121°50'0 0.0
2015-Feb-01 01:09N 29°57' E 121°50'0 0.0
2015-Feb-01 00:23N 29°57' E 121°50'0 0.0
2015-Jan-31 23:23N 29°57' E 121°50'0 0.0
2015-Jan-31 21:29N 29°57' E 121°50'0 0.0
2015-Jan-31 20:17N 29°57' E 121°50'0 0.0
2015-Jan-31 18:11N 29°57' E 121°50'0 0.0
2015-Jan-31 17:23N 29°57' E 121°50'0 0.0
2015-Jan-31 16:23N 29°57' E 121°50'0 0.0
2015-Jan-31 15:29N 29°57' E 121°50'0 0.0
2015-Jan-31 14:23N 29°57' E 121°50'0 0.0
2015-Jan-31 13:29N 29°57' E 121°50'0 0.0
2015-Jan-31 12:29N 29°57' E 121°50'0 0.0
2015-Jan-31 11:11N 29°57' E 121°50'0 0.0
2015-Jan-31 10:17N 29°57' E 121°50'0 0.0
2015-Jan-31 09:29N 29°57' E 121°50'0 0.0
2015-Jan-31 08:29N 29°57' E 121°50'0 0.0
2015-Jan-31 07:28N 29°57' E 121°50'0 0.0
2015-Jan-31 06:28N 29°57' E 121°50'0 0.0
2015-Jan-31 05:29N 29°57' E 121°50'0 0.0
2015-Jan-31 04:29N 29°57' E 121°50'1 1.0
2015-Jan-31 03:33N 29°57' E 121°51'8 7.7
2015-Jan-31 02:33N 29°57' E 121°60'1111.2
2015-Jan-31 01:33N 29°52' E 122°12'1110.5
2015-Jan-31 00:33N 29°45' E 122°20'7 7.1
2015-Jan-30 23:33N 29°43' E 122°28'7 6.7
2015-Jan-30 22:33N 29°36' E 122°26'1 0.5
2015-Jan-30 20:28N 29°36' E 122°25'0 0.0
2015-Jan-30 19:29N 29°36' E 122°25'0 0.1
2015-Jan-30 18:28N 29°36' E 122°25'1 2.5
2015-Jan-30 18:00N 29°36' E 122°24'1 1.5 340 / 221032.2 5.4 4.6-2.1 9.4
2015-Jan-30 17:10N 29°36' E 122°25'0 0.0
2015-Jan-30 16:28N 29°36' E 122°25'0 0.0
2015-Jan-30 15:28N 29°36' E 122°25'0 0.0
2015-Jan-30 12:10N 29°36' E 122°25'0 0.0
2015-Jan-30 10:22N 29°36' E 122°25'0 0.1
2015-Jan-30 09:28N 29°36' E 122°25'0 0.0
2015-Jan-30 07:16N 29°36' E 122°25'0 0.0
2015-Jan-30 06:22N 29°36' E 122°25'1 3.0
2015-Jan-30 06:00N 29°36' E 122°24'1 0.7 340 / 221028.5 5.4 1.5 6.3-1.4 9.5
2015-Jan-30 04:10N 29°36' E 122°25'0 0.0
2015-Jan-30 03:22N 29°36' E 122°25'0 0.0
2015-Jan-30 02:10N 29°36' E 122°25'0 0.1
2015-Jan-29 23:32N 29°36' E 122°25'7 7.5
2015-Jan-29 22:33N 29°29' E 122°29'1413.7
2015-Jan-29 21:30N 29°15' E 122°30'5114.6
2015-Jan-29 18:00N 28°24' E 122°24'16513.8 350 / 301023.9 5.4 7.8 5.814.8
2015-Jan-29 06:00N 26°06' E 120°42'12614.9 020 / 301018.9 5.4 3.014.310.315.8
2015-Jan-28 21:32N 24°28' E 119°13'1714.6
2015-Jan-28 20:21N 24°18' E 118°59'2715.1
2015-Jan-28 18:33N 24°00' E 118°36'1222.2
2015-Jan-28 18:00N 23°54' E 118°24'3 7.1 030 / 381020.410.8 14.210.614.7
2015-Jan-28 17:33N 23°51' E 118°22'1515.1
2015-Jan-28 16:33N 23°42' E 118°09'8813.8
2015-Jan-28 10:13N 22°52' E 116°51'6715.9
2015-Jan-28 06:00N 22°30' E 115°42'6713.8 060 / 321017.5 5.4 2.516.610.716.4
2015-Jan-28 01:10N 22°24' E 114°30'1412.9
2015-Jan-28 00:04N 22°34' E 114°19'13 0.8
2015-Jan-27 08:18N 22°25' E 114°29'1418.8
2015-Jan-27 07:33N 22°11' E 114°29'2118.6
2015-Jan-27 06:26N 21°50' E 114°26'23819.1
2015-Jan-26 18:00N 18°06' E 113°00'22718.9 080 / 111015.810.8 21.519.222.8
2015-Jan-26 06:00N 14°36' E 111°30'16713.9 030 / 141014.810.8 25.519.424.5
2015-Jan-25 18:00N 12°00' E 110°30'83 6.9 050 / 151015.110.8 23.319.225.3
2015-Jan-25 06:00N 10°42' E 110°00'86 7.1 020 / 181015.010.8 30.815.225.0
2015-Jan-24 18:00N 09°24' E 109°24'17814.8 050 / 221014.510.8 23.618.724.1
2015-Jan-24 06:00N 06°54' E 107°48'22919.0 070 / 171013.3 5.4 26.318.424.5
2015-Jan-23 18:00N 04°12' E 105°06'17813.8 060 / 171013.410.8 24.220.125.3
2015-Jan-23 05:08N 01°19' E 104°22'813.3
2015-Jan-23 04:32N 01°16' E 104°15'1414.1
2015-Jan-23 03:31N 01°14' E 104°01'9 9.3
2015-Jan-23 02:32N 01°12' E 103°52'4 3.8
2015-Jan-23 01:33N 01°16' E 103°50'  

Dump ship's entire track history